aviador You're here:

KFLO Decoded Metar

FLORENCE in SC, USA
Report Time2018-07-22 00:53:00
UTC Time2018-07-22 01:09:54
Flight Rules vfr VFR
Wind200° at 05 kt
W.Decomp.*RWY 19: 4.8 kt HW 1.3 kt RCW
RWY 27: 2.1 kt HW 4.5 kt LCW
W.Rank200° ranks 1
Current wind is below 200° avg. (6.4)
Visibility9999 m
Phenomena:N/A
Clouds:N/A
Expected CloudBase > 2,000 ft AGL from Temp-Dew spread
CeilingNone
Temp27°C (ISA +12)
Dew Point22°C (74% RH)
Heat Index29.2°C
QNH1008 hPa
Density Alt2,077 ft
Elevation144 ft
Report Wrong Elevation
Raw Report
METAR KFLO 220053Z 20005KT 10SM CLR 27/22 A2977 RMK AO2 SLP078 T02720217=

Extra information for KFLO:More info

Metar Taf Metar & Taf Last 4 Metars F.Rules Stats Wind Profile Meteogram Temp Stats Airport Information Weather charts Add Link Nearby VenuesMetar ALERT Operation Metar Decoded Social comments

AIRNAV info for KFLO